createdAt,value
2023-02-17T00:01:43.199Z,10.95
2023-02-17T00:04:11.834Z,10.40
2023-02-17T00:06:43.296Z,8.27
2023-02-17T00:09:11.603Z,8.40
2023-02-17T00:11:40.074Z,8.27
2023-02-17T00:14:09.052Z,8.68
2023-02-17T00:16:37.345Z,7.45
2023-02-17T00:19:25.053Z,7.00
2023-02-17T00:21:56.764Z,7.68
2023-02-17T00:24:26.115Z,6.60
2023-02-17T00:26:54.584Z,6.68
2023-02-17T00:29:23.381Z,7.40
2023-02-17T00:31:53.505Z,7.72
2023-02-17T00:34:21.898Z,6.32
2023-02-17T00:36:51.381Z,7.85
2023-02-17T00:39:21.239Z,6.72
2023-02-17T00:41:49.773Z,7.15
2023-02-17T00:44:19.500Z,7.68
2023-02-17T00:46:48.606Z,7.30
2023-02-17T00:49:21.056Z,7.05
2023-02-17T00:51:51.653Z,6.82
2023-02-17T00:54:24.198Z,7.22
2023-02-17T00:56:52.400Z,7.95
2023-02-17T00:59:20.654Z,7.03
2023-02-17T01:01:48.985Z,6.47
2023-02-17T01:04:17.233Z,6.43
2023-02-17T01:06:45.476Z,7.10
2023-02-17T01:09:15.727Z,7.53
2023-02-17T01:11:45.477Z,7.90
2023-02-17T01:14:14.885Z,8.18
2023-02-17T01:16:46.711Z,8.30
2023-02-17T01:19:18.682Z,7.32
2023-02-17T01:21:49.241Z,7.65
2023-02-17T01:24:17.582Z,6.93
2023-02-17T01:26:47.515Z,7.25
2023-02-17T01:29:15.789Z,7.60
2023-02-17T01:31:44.193Z,7.18
2023-02-17T01:34:12.958Z,7.05
2023-02-17T01:36:41.380Z,8.23
2023-02-17T01:39:09.688Z,7.88
2023-02-17T01:41:37.907Z,6.93
2023-02-17T01:44:19.651Z,8.48
2023-02-17T01:46:53.205Z,8.40
2023-02-17T01:49:31.982Z,6.32
2023-02-17T01:52:08.987Z,6.57
2023-02-17T01:54:41.787Z,6.75
2023-02-17T01:57:12.974Z,6.30
2023-02-17T01:59:43.103Z,7.53
2023-02-17T02:02:11.971Z,7.43
2023-02-17T02:04:46.669Z,6.97
2023-02-17T02:07:24.352Z,7.18
2023-02-17T02:09:55.133Z,7.50
2023-02-17T02:12:26.551Z,6.80
2023-02-17T02:14:58.867Z,6.68
2023-02-17T02:17:38.989Z,7.03
2023-02-17T02:20:38.692Z,7.65
2023-02-17T02:23:26.683Z,7.53
2023-02-17T02:26:28.625Z,6.88
2023-02-17T02:29:32.938Z,7.68
2023-02-17T02:32:27.192Z,8.93
2023-02-17T02:35:02.681Z,12.02
2023-02-17T02:37:36.750Z,13.68
2023-02-17T02:40:16.829Z,17.25
2023-02-17T02:42:46.219Z,16.00
2023-02-17T02:45:14.676Z,18.48
2023-02-17T02:47:49.938Z,16.92
2023-02-17T02:50:30.022Z,18.92
2023-02-17T02:53:14.552Z,18.55
2023-02-17T02:55:54.045Z,16.92
2023-02-17T02:58:28.557Z,19.52
2023-02-17T03:01:00.441Z,19.38
2023-02-17T03:03:44.458Z,16.75
2023-02-17T03:06:21.634Z,16.35
2023-02-17T03:08:55.278Z,18.33
2023-02-17T03:11:32.594Z,16.00
2023-02-17T03:14:06.516Z,18.88
2023-02-17T03:16:35.811Z,17.58
2023-02-17T03:19:05.914Z,14.95
2023-02-17T03:21:46.497Z,10.93
2023-02-17T03:24:14.892Z,9.18
2023-02-17T03:26:43.280Z,9.10
2023-02-17T03:29:11.552Z,8.43
2023-02-17T03:31:41.270Z,7.00
2023-02-17T03:34:11.261Z,7.60
2023-02-17T03:36:41.565Z,8.65
2023-02-17T03:39:11.613Z,6.95
2023-02-17T03:41:39.911Z,7.90
2023-02-17T03:44:08.110Z,8.40
2023-02-17T03:46:36.370Z,6.90
2023-02-17T03:49:04.715Z,9.20
2023-02-17T03:51:35.579Z,8.18
2023-02-17T03:54:04.061Z,6.70
2023-02-17T03:56:32.501Z,6.30
2023-02-17T03:59:00.927Z,6.10
2023-02-17T04:01:29.128Z,5.18
2023-02-17T04:03:57.528Z,4.80
2023-02-17T04:06:25.785Z,5.78
2023-02-17T04:08:55.669Z,5.30
2023-02-17T04:11:23.991Z,5.10
2023-02-17T04:13:52.317Z,4.80
2023-02-17T04:16:20.618Z,5.03
2023-02-17T04:18:48.777Z,4.70
2023-02-17T04:21:17.071Z,4.68
2023-02-17T04:23:45.530Z,4.60
2023-02-17T04:26:21.495Z,4.93
2023-02-17T04:28:51.737Z,4.65
2023-02-17T04:31:20.117Z,3.83
2023-02-17T04:33:48.601Z,4.97
2023-02-17T04:36:16.934Z,4.25
2023-02-17T04:38:45.133Z,4.63
2023-02-17T04:41:14.955Z,4.43
2023-02-17T04:43:43.228Z,4.22
2023-02-17T04:46:12.207Z,4.55
2023-02-17T04:48:40.743Z,4.38
2023-02-17T04:51:09.086Z,4.88
2023-02-17T04:53:37.407Z,5.25
2023-02-17T04:56:06.712Z,4.65
2023-02-17T04:58:36.544Z,4.25
2023-02-17T05:01:05.103Z,4.07
2023-02-17T05:03:33.564Z,4.40
2023-02-17T05:06:01.845Z,3.63
2023-02-17T05:08:30.292Z,4.22
2023-02-17T05:10:58.578Z,3.72
2023-02-17T05:13:27.611Z,3.75
2023-02-17T05:15:57.552Z,3.20
2023-02-17T05:18:25.918Z,3.85
2023-02-17T05:20:54.190Z,3.85
2023-02-17T05:23:22.580Z,4.07
2023-02-17T05:25:50.854Z,3.83
2023-02-17T05:28:19.422Z,3.20
2023-02-17T05:30:49.890Z,4.20
2023-02-17T05:33:22.246Z,4.53
2023-02-17T05:35:54.916Z,3.85
2023-02-17T05:38:23.257Z,3.78
2023-02-17T05:40:51.776Z,4.00
2023-02-17T05:43:20.154Z,3.88
2023-02-17T05:45:48.537Z,4.25
2023-02-17T05:48:16.969Z,3.65
2023-02-17T05:50:46.719Z,4.10
2023-02-17T05:53:14.967Z,4.07
2023-02-17T05:55:43.265Z,4.47
2023-02-17T05:58:11.523Z,3.90
2023-02-17T06:00:39.824Z,4.68
2023-02-17T06:03:08.115Z,3.65
2023-02-17T06:05:36.497Z,3.90
2023-02-17T06:08:06.908Z,3.35
2023-02-17T06:10:35.172Z,3.90
2023-02-17T06:13:03.626Z,3.50
2023-02-17T06:15:31.918Z,3.85
2023-02-17T06:18:00.260Z,3.58
2023-02-17T06:20:28.577Z,4.20
2023-02-17T06:22:56.852Z,3.10
2023-02-17T06:25:26.614Z,3.63
2023-02-17T06:27:55.094Z,4.07
2023-02-17T06:30:23.451Z,3.72
2023-02-17T06:32:53.169Z,4.03
2023-02-17T06:35:21.469Z,3.67
2023-02-17T06:37:49.760Z,3.55
2023-02-17T06:40:18.601Z,4.40
2023-02-17T06:42:48.308Z,3.97
2023-02-17T06:45:16.806Z,3.55
2023-02-17T06:47:45.070Z,3.60
2023-02-17T06:50:15.012Z,3.53
2023-02-17T06:52:43.584Z,3.50
2023-02-17T06:55:12.172Z,3.95
2023-02-17T06:57:40.437Z,3.92
2023-02-17T07:00:11.327Z,3.83
2023-02-17T07:02:40.205Z,3.67
2023-02-17T07:05:09.463Z,4.40
2023-02-17T07:07:37.775Z,3.78
2023-02-17T07:10:07.005Z,4.30
2023-02-17T07:12:35.245Z,4.03
2023-02-17T07:15:03.527Z,4.00
2023-02-17T07:17:33.270Z,4.32
2023-02-17T07:20:01.510Z,4.53
2023-02-17T07:22:29.714Z,4.32
2023-02-17T07:24:57.846Z,4.03
2023-02-17T07:27:26.138Z,4.18
2023-02-17T07:29:55.462Z,5.03
2023-02-17T07:32:23.837Z,4.18
2023-02-17T07:34:53.612Z,4.50
2023-02-17T07:37:22.115Z,4.00
2023-02-17T07:39:50.509Z,4.50
2023-02-17T07:42:18.721Z,4.20
2023-02-17T07:44:46.968Z,4.55
2023-02-17T07:47:15.423Z,4.72
2023-02-17T07:49:43.695Z,5.00
2023-02-17T07:52:13.335Z,5.22
2023-02-17T07:54:41.707Z,4.95
2023-02-17T07:57:10.041Z,5.18
2023-02-17T07:59:38.411Z,5.35
2023-02-17T08:02:06.838Z,6.03
2023-02-17T08:04:35.123Z,6.13
2023-02-17T08:07:03.371Z,5.38
2023-02-17T08:09:50.621Z,5.03
2023-02-17T08:12:37.862Z,5.45
2023-02-17T08:15:07.352Z,6.13
2023-02-17T08:17:35.727Z,5.68
2023-02-17T08:20:09.145Z,3.90
2023-02-17T08:22:37.617Z,4.15
2023-02-17T08:25:07.914Z,3.97
2023-02-17T08:27:36.276Z,3.65
2023-02-17T08:30:04.757Z,2.88
2023-02-17T08:32:33.030Z,2.58
2023-02-17T08:35:01.836Z,2.90
2023-02-17T08:37:31.912Z,3.38
2023-02-17T08:40:00.641Z,3.22
2023-02-17T08:42:33.022Z,3.15
2023-02-17T08:45:01.402Z,3.00
2023-02-17T08:47:35.141Z,3.83
2023-02-17T08:50:04.736Z,3.28
2023-02-17T08:52:33.039Z,3.90
2023-02-17T08:55:01.595Z,2.58
2023-02-17T08:57:31.469Z,3.35
2023-02-17T08:59:59.702Z,2.85
2023-02-17T09:02:27.916Z,3.35
2023-02-17T09:04:56.481Z,3.75
2023-02-17T09:07:24.827Z,2.83
2023-02-17T09:09:53.253Z,3.05
2023-02-17T09:12:21.586Z,3.58
2023-02-17T09:14:51.365Z,3.13
2023-02-17T09:17:19.909Z,2.55
2023-02-17T09:19:48.826Z,3.05
2023-02-17T09:22:30.774Z,2.95
2023-02-17T09:24:59.770Z,3.47
2023-02-17T09:27:28.274Z,2.78
2023-02-17T09:29:58.364Z,2.85
2023-02-17T09:32:26.958Z,3.40
2023-02-17T09:34:55.359Z,3.17
2023-02-17T09:37:23.735Z,3.22
2023-02-17T09:39:52.053Z,3.22
2023-02-17T09:42:23.519Z,3.30
2023-02-17T09:44:57.009Z,2.92
2023-02-17T09:47:30.886Z,3.80
2023-02-17T09:50:03.850Z,3.47
2023-02-17T09:52:38.058Z,3.53
2023-02-17T09:55:08.916Z,3.28
2023-02-17T09:57:40.838Z,3.63
2023-02-17T10:00:13.610Z,3.35
2023-02-17T10:02:52.745Z,3.58
2023-02-17T10:05:25.499Z,3.50
2023-02-17T10:07:58.039Z,3.67
2023-02-17T10:10:32.775Z,2.92
2023-02-17T10:13:03.755Z,2.80
2023-02-17T10:15:36.807Z,2.92
2023-02-17T10:18:14.727Z,2.58
2023-02-17T10:20:46.325Z,3.55
2023-02-17T10:23:17.871Z,2.75
2023-02-17T10:26:06.033Z,2.80
2023-02-17T10:28:50.666Z,3.47
2023-02-17T10:31:33.077Z,3.90
2023-02-17T10:34:05.752Z,2.40
2023-02-17T10:36:44.735Z,4.35
2023-02-17T10:39:16.718Z,2.75
2023-02-17T10:41:50.516Z,3.13
2023-02-17T10:44:21.534Z,3.70
2023-02-17T10:46:51.340Z,3.13
2023-02-17T10:49:27.366Z,3.35
2023-02-17T10:51:55.747Z,2.60
2023-02-17T10:54:33.464Z,2.80
2023-02-17T10:57:04.984Z,2.92
2023-02-17T10:59:36.645Z,2.47
2023-02-17T11:02:17.415Z,2.75
2023-02-17T11:04:50.312Z,3.08
2023-02-17T11:07:20.914Z,2.22
2023-02-17T11:09:51.343Z,3.22
2023-02-17T11:12:23.974Z,2.22
2023-02-17T11:14:55.509Z,2.47
2023-02-17T11:17:30.189Z,2.70
2023-02-17T11:20:04.231Z,2.65
2023-02-17T11:22:36.002Z,2.60
2023-02-17T11:25:07.468Z,2.35
2023-02-17T11:27:36.413Z,1.90
2023-02-17T11:30:18.814Z,2.28
2023-02-17T11:32:47.723Z,2.05
2023-02-17T11:35:26.686Z,2.97
2023-02-17T11:38:02.603Z,2.78
2023-02-17T11:40:33.163Z,2.25
2023-02-17T11:43:03.185Z,2.42
2023-02-17T11:45:39.450Z,2.50
2023-02-17T11:48:23.528Z,2.50
2023-02-17T11:51:00.365Z,2.30
2023-02-17T11:53:48.506Z,2.42
2023-02-17T11:56:19.881Z,2.47
2023-02-17T11:59:14.580Z,2.85
2023-02-17T12:01:58.414Z,2.08
2023-02-17T12:04:32.019Z,2.42
2023-02-17T12:07:17.513Z,2.40
2023-02-17T12:09:54.260Z,2.83
2023-02-17T12:12:33.450Z,2.38
2023-02-17T12:15:17.368Z,2.45
2023-02-17T12:17:57.210Z,2.47
2023-02-17T12:20:47.573Z,1.95
2023-02-17T12:23:40.284Z,2.42
2023-02-17T12:26:16.798Z,3.03
2023-02-17T12:29:01.708Z,2.38
2023-02-17T12:32:13.122Z,2.63
2023-02-17T12:34:43.774Z,2.75
2023-02-17T12:37:19.391Z,2.20
2023-02-17T12:39:53.198Z,2.35
2023-02-17T12:42:25.668Z,2.13
2023-02-17T12:44:58.013Z,2.00
2023-02-17T12:47:32.355Z,2.30
2023-02-17T12:50:05.205Z,2.72
2023-02-17T12:52:38.493Z,2.15
2023-02-17T12:55:20.903Z,2.33
2023-02-17T12:57:55.968Z,2.20
2023-02-17T13:00:28.696Z,2.42
2023-02-17T13:03:00.196Z,3.60
2023-02-17T13:05:33.602Z,3.70
2023-02-17T13:08:06.094Z,6.07
2023-02-17T13:10:38.983Z,4.18
2023-02-17T13:13:11.157Z,7.05
2023-02-17T13:15:42.973Z,3.88
2023-02-17T13:18:27.700Z,5.20
2023-02-17T13:20:59.845Z,2.78
2023-02-17T13:23:37.899Z,3.05
2023-02-17T13:26:27.651Z,2.85
2023-02-17T13:29:09.110Z,2.60
2023-02-17T13:31:48.000Z,2.70
2023-02-17T13:34:27.187Z,1.73
2023-02-17T13:36:55.855Z,2.00
2023-02-17T13:39:35.937Z,1.58
2023-02-17T13:42:26.508Z,3.85
2023-02-17T13:44:56.403Z,3.38
2023-02-17T13:47:30.820Z,2.17
2023-02-17T13:49:59.416Z,1.45
2023-02-17T13:52:29.945Z,1.60
2023-02-17T13:54:59.685Z,2.20
2023-02-17T13:57:30.132Z,1.65
2023-02-17T14:00:11.555Z,2.13
2023-02-17T14:02:46.990Z,2.00
2023-02-17T14:05:21.123Z,1.77
2023-02-17T14:07:50.346Z,1.80
2023-02-17T14:10:24.084Z,2.10
2023-02-17T14:12:53.085Z,1.73
2023-02-17T14:15:25.077Z,2.08
2023-02-17T14:17:53.977Z,1.10
2023-02-17T14:20:34.662Z,1.77
2023-02-17T14:23:06.730Z,1.75
2023-02-17T14:25:37.909Z,1.92
2023-02-17T14:28:18.524Z,1.75
2023-02-17T14:30:48.783Z,2.00
2023-02-17T14:33:23.003Z,1.40
2023-02-17T14:35:52.879Z,1.63
2023-02-17T14:38:24.165Z,1.17
2023-02-17T14:40:53.539Z,1.27
2023-02-17T14:43:21.826Z,1.17
2023-02-17T14:45:51.932Z,1.10
2023-02-17T14:48:20.970Z,1.17
2023-02-17T14:50:49.560Z,1.60
2023-02-17T14:53:24.563Z,1.88
2023-02-17T14:55:57.618Z,1.63
2023-02-17T14:58:30.379Z,1.40
2023-02-17T15:01:00.684Z,1.80
2023-02-17T15:03:29.130Z,1.50
2023-02-17T15:05:57.468Z,1.65
2023-02-17T15:08:33.346Z,1.10
2023-02-17T15:11:01.812Z,1.25
2023-02-17T15:13:32.095Z,1.52
2023-02-17T15:16:02.419Z,1.52
2023-02-17T15:18:30.818Z,1.35
2023-02-17T15:20:59.115Z,1.23
2023-02-17T15:23:29.598Z,1.63
2023-02-17T15:25:58.067Z,1.63
2023-02-17T15:28:26.302Z,1.60
2023-02-17T15:30:57.104Z,1.10
2023-02-17T15:33:27.116Z,1.40
2023-02-17T15:35:56.214Z,1.40
2023-02-17T15:38:27.273Z,1.27
2023-02-17T15:40:58.747Z,1.48
2023-02-17T15:46:03.318Z,1.40
2023-02-17T15:48:34.698Z,1.55
2023-02-17T15:51:02.967Z,1.88
2023-02-17T15:53:33.193Z,1.55
2023-02-17T15:56:02.069Z,1.52
2023-02-17T15:58:31.702Z,1.42
2023-02-17T16:01:04.238Z,1.42
2023-02-17T16:03:34.454Z,1.35
2023-02-17T16:06:03.189Z,1.42
2023-02-17T16:08:31.379Z,1.50
2023-02-17T16:10:59.820Z,1.58
2023-02-17T16:13:28.978Z,1.30
2023-02-17T16:15:59.607Z,2.40
2023-02-17T16:18:27.858Z,3.05
2023-02-17T16:20:57.808Z,4.10
2023-02-17T16:23:26.077Z,2.72
2023-02-17T16:25:54.560Z,2.00
2023-02-17T16:28:24.273Z,1.52
2023-02-17T16:30:52.665Z,1.52
2023-02-17T16:33:20.957Z,2.03
2023-02-17T16:35:51.754Z,1.75
2023-02-17T16:38:23.572Z,2.00
2023-02-17T16:40:53.659Z,1.70
2023-02-17T16:43:23.496Z,1.67
2023-02-17T16:45:55.914Z,1.67
2023-02-17T16:48:24.948Z,1.95
2023-02-17T16:50:53.478Z,1.80
2023-02-17T16:53:23.552Z,2.30
2023-02-17T16:55:53.874Z,1.90
2023-02-17T16:58:24.826Z,1.73
2023-02-17T17:00:55.057Z,1.70
2023-02-17T17:03:23.894Z,2.30
2023-02-17T17:05:52.617Z,2.53
2023-02-17T17:08:22.540Z,1.70
2023-02-17T17:10:50.806Z,2.10
2023-02-17T17:13:19.087Z,1.75
2023-02-17T17:15:47.771Z,1.65
2023-02-17T17:18:21.267Z,2.08
2023-02-17T17:20:49.990Z,2.05
2023-02-17T17:23:19.049Z,2.03
2023-02-17T17:25:48.940Z,1.85
2023-02-17T17:28:19.275Z,1.85
2023-02-17T17:30:47.786Z,1.90
2023-02-17T17:33:16.364Z,2.30
2023-02-17T17:35:44.750Z,1.90
2023-02-17T17:38:15.708Z,2.30
2023-02-17T17:40:50.008Z,2.30
2023-02-17T17:43:23.158Z,2.28
2023-02-17T17:45:52.538Z,2.38
2023-02-17T17:48:36.131Z,2.90
2023-02-17T17:51:04.385Z,2.38
2023-02-17T17:53:32.707Z,1.90
2023-02-17T17:56:00.955Z,2.42
2023-02-17T17:58:31.591Z,2.80
2023-02-17T18:01:01.180Z,2.05
2023-02-17T18:03:29.499Z,2.42
2023-02-17T18:05:58.077Z,2.15
2023-02-17T18:08:26.633Z,2.30
2023-02-17T18:10:55.174Z,1.85
2023-02-17T18:13:23.777Z,1.90
2023-02-17T18:15:54.433Z,1.52
2023-02-17T18:18:25.109Z,2.30
2023-02-17T18:20:53.380Z,2.25
2023-02-17T18:23:21.640Z,2.03
2023-02-17T18:25:49.922Z,2.45
2023-02-17T18:28:18.207Z,2.80
2023-02-17T18:30:46.703Z,2.08
2023-02-17T18:33:16.508Z,2.05
2023-02-17T18:35:45.726Z,2.00
2023-02-17T18:38:14.013Z,2.17
2023-02-17T18:40:43.247Z,1.67
2023-02-17T18:43:11.629Z,2.08
2023-02-17T18:45:39.875Z,2.20
2023-02-17T18:48:08.161Z,2.55
2023-02-17T18:50:38.103Z,2.17
2023-02-17T18:53:06.335Z,2.58
2023-02-17T18:55:37.557Z,2.00
2023-02-17T18:58:05.945Z,2.20
2023-02-17T19:00:34.224Z,2.30
2023-02-17T19:03:02.538Z,1.85
2023-02-17T19:05:31.141Z,2.13
2023-02-17T19:08:00.872Z,3.08
2023-02-17T19:10:29.164Z,2.22
2023-02-17T19:12:57.984Z,2.85
2023-02-17T19:15:26.288Z,2.42
2023-02-17T19:17:57.063Z,1.98
2023-02-17T19:20:27.887Z,2.80
2023-02-17T19:22:56.070Z,2.55
2023-02-17T19:25:26.095Z,2.10
2023-02-17T19:27:54.271Z,2.33
2023-02-17T19:30:22.717Z,1.95
2023-02-17T19:32:51.048Z,2.20
2023-02-17T19:35:19.504Z,3.22
2023-02-17T19:37:48.005Z,2.67
2023-02-17T19:40:16.353Z,1.55
2023-02-17T19:42:46.085Z,2.35
2023-02-17T19:45:14.560Z,1.90
2023-02-17T19:47:42.779Z,1.92
2023-02-17T19:50:11.386Z,1.67
2023-02-17T19:52:39.745Z,1.95
2023-02-17T19:55:10.082Z,1.42
2023-02-17T19:57:38.492Z,1.52
2023-02-17T20:00:10.461Z,1.52
2023-02-17T20:02:38.720Z,1.70
2023-02-17T20:05:07.470Z,1.50
2023-02-17T20:07:38.689Z,1.42
2023-02-17T20:10:10.864Z,1.75
2023-02-17T20:12:39.219Z,1.42
2023-02-17T20:15:10.115Z,1.65
2023-02-17T20:17:39.316Z,1.60
2023-02-17T20:20:10.227Z,1.88
2023-02-17T20:22:38.481Z,2.03
2023-02-17T20:25:07.463Z,1.80
2023-02-17T20:27:35.926Z,1.30
2023-02-17T20:30:04.865Z,1.85
2023-02-17T20:32:34.915Z,1.50
2023-02-17T20:35:03.281Z,1.63
2023-02-17T20:37:31.654Z,1.83
2023-02-17T20:40:00.569Z,1.85
2023-02-17T20:42:28.928Z,1.63
2023-02-17T20:44:57.134Z,1.45
2023-02-17T20:47:25.389Z,1.92
2023-02-17T20:49:55.040Z,2.13
2023-02-17T20:52:23.278Z,1.85
2023-02-17T20:54:51.657Z,1.50
2023-02-17T20:57:20.035Z,1.95
2023-02-17T20:59:48.329Z,2.30
2023-02-17T21:02:16.573Z,1.75
2023-02-17T21:04:44.888Z,1.95
2023-02-17T21:07:14.904Z,2.00
2023-02-17T21:09:43.182Z,1.95
2023-02-17T21:12:11.406Z,1.90
2023-02-17T21:14:39.748Z,1.70
2023-02-17T21:17:07.907Z,1.80
2023-02-17T21:19:36.150Z,1.50
2023-02-17T21:22:04.934Z,2.05
2023-02-17T21:24:34.774Z,1.67
2023-02-17T21:27:03.002Z,1.80
2023-02-17T21:29:31.273Z,2.17
2023-02-17T21:31:59.677Z,1.63
2023-02-17T21:34:28.045Z,1.65
2023-02-17T21:36:56.504Z,1.90
2023-02-17T21:39:24.694Z,2.08
2023-02-17T21:41:54.483Z,1.80
2023-02-17T21:44:40.181Z,1.55
2023-02-17T21:47:08.543Z,1.60
2023-02-17T21:49:36.877Z,1.70
2023-02-17T21:52:05.719Z,1.40
2023-02-17T21:54:34.050Z,2.10
2023-02-17T21:57:04.546Z,1.63
2023-02-17T21:59:32.970Z,1.42
2023-02-17T22:02:01.058Z,1.60
2023-02-17T22:04:30.053Z,1.55
2023-02-17T22:06:58.334Z,1.20
2023-02-17T22:09:26.515Z,2.00
2023-02-17T22:11:55.734Z,2.03
2023-02-17T22:14:28.648Z,1.90
2023-02-17T22:16:59.977Z,1.48
2023-02-17T22:19:31.363Z,1.65
2023-02-17T22:21:59.980Z,1.40
2023-02-17T22:24:28.253Z,1.80
2023-02-17T22:26:56.747Z,1.85
2023-02-17T22:29:26.489Z,1.20
2023-02-17T22:31:56.014Z,1.50
2023-02-17T22:34:26.165Z,1.55
2023-02-17T22:36:54.406Z,1.80
2023-02-17T22:39:22.982Z,1.20
2023-02-17T22:41:51.260Z,1.75
2023-02-17T22:44:19.612Z,1.77
2023-02-17T22:46:49.292Z,1.63
2023-02-17T22:49:17.689Z,1.67
2023-02-17T22:51:45.928Z,1.52
2023-02-17T22:54:15.390Z,1.75
2023-02-17T22:56:46.012Z,1.27
2023-02-17T22:59:16.459Z,1.60
2023-02-17T23:01:46.377Z,1.48
2023-02-17T23:04:17.113Z,2.08
2023-02-17T23:06:46.387Z,1.60
2023-02-17T23:09:17.822Z,1.55
2023-02-17T23:11:57.627Z,1.10
2023-02-17T23:14:29.384Z,1.38
2023-02-17T23:17:00.709Z,1.25
2023-02-17T23:19:31.561Z,1.00
2023-02-17T23:22:02.777Z,1.27
2023-02-17T23:24:31.086Z,1.58
2023-02-17T23:27:06.504Z,1.40
2023-02-17T23:29:35.127Z,1.05
2023-02-17T23:32:03.732Z,1.13
2023-02-17T23:34:33.820Z,1.23
2023-02-17T23:37:02.089Z,1.58
2023-02-17T23:39:30.458Z,2.10
2023-02-17T23:41:58.873Z,1.13
2023-02-17T23:44:27.222Z,0.90
2023-02-17T23:47:03.769Z,0.98
2023-02-17T23:49:33.423Z,1.23
2023-02-17T23:52:02.715Z,1.33
2023-02-17T23:54:30.905Z,1.48
2023-02-17T23:56:59.113Z,1.27
2023-02-17T23:59:27.492Z,1.20
